Eagle Lake, New York
Current Conditions -  °F | °C
As of 12:55 PM on Tuesday 21 Oct 2014 (Local Time) from K6B0 Reporting Station
Drizzle Drizzle  
Wind Chill: 48°   Ceiling: 5000
Heat Index: 50°   Visibility: 10mi
Dew Point: 47°   Wind: 5mph
Humidity: 90%   Direction: 110°ESE
Pressure: 29.96"   Gusts: NA
Location:  43.8519°N, 73.5047°W
Report Text: K6B0 211655Z AUTO 11004KT 10SM DZ SCT044 OVC050 10/08 A2996 RMK AO2 T00990084
Loading
Personal Weather Stations






























Interactive Weather Map
Tropical Storm Tracking
New forecast layout! Learn more

10-Day Weather Forecast

Advertisements
Track Severe Weather on mobile